Aviation Digital Data Service (ADDS)

Output produced by METARs form (0816 UTC 14 December 2017)
found at http://aviationweather.gov/adds/metars/
 
KRWI 140522Z 1406/1506 21008KT P6SM SKC WS020/23040KT 
     FM141300 23006KT P6SM SKC 
     FM141600 27009KT P6SM SKC 
     FM142300 VRB02KT P6SM FEW250